sensor_id;sensor_type;location;lat;lon;timestamp;P1;durP1;ratioP1;P2;durP2;ratioP2
13866;SDS011;7003;46.982;15.248;2024-03-08T00:00:03;8.83;;;4.53;;
13866;SDS011;7003;46.982;15.248;2024-03-08T00:02:35;9.63;;;4.97;;
13866;SDS011;7003;46.982;15.248;2024-03-08T00:05:06;6.83;;;5.03;;
13866;SDS011;7003;46.982;15.248;2024-03-08T00:07:38;5.43;;;4.23;;
13866;SDS011;7003;46.982;15.248;2024-03-08T00:10:07;6.97;;;4.47;;
13866;SDS011;7003;46.982;15.248;2024-03-08T00:12:40;4.67;;;3.70;;
13866;SDS011;7003;46.982;15.248;2024-03-08T00:15:09;7.10;;;6.20;;
13866;SDS011;7003;46.982;15.248;2024-03-08T00:17:42;8.20;;;4.80;;
13866;SDS011;7003;46.982;15.248;2024-03-08T00:20:11;5.67;;;4.93;;
13866;SDS011;7003;46.982;15.248;2024-03-08T00:22:38;6.90;;;3.77;;
13866;SDS011;7003;46.982;15.248;2024-03-08T00:25:07;4.90;;;3.50;;
13866;SDS011;7003;46.982;15.248;2024-03-08T00:27:37;6.97;;;4.57;;
13866;SDS011;7003;46.982;15.248;2024-03-08T00:30:09;6.33;;;4.23;;
13866;SDS011;7003;46.982;15.248;2024-03-08T00:32:41;2.83;;;2.63;;
13866;SDS011;7003;46.982;15.248;2024-03-08T00:35:09;7.93;;;4.37;;
13866;SDS011;7003;46.982;15.248;2024-03-08T00:37:38;10.70;;;6.77;;
13866;SDS011;7003;46.982;15.248;2024-03-08T00:40:05;13.90;;;6.90;;
13866;SDS011;7003;46.982;15.248;2024-03-08T00:42:37;7.63;;;5.57;;
13866;SDS011;7003;46.982;15.248;2024-03-08T00:45:10;10.37;;;6.97;;
13866;SDS011;7003;46.982;15.248;2024-03-08T00:47:37;7.23;;;5.77;;
13866;SDS011;7003;46.982;15.248;2024-03-08T00:50:09;10.57;;;6.83;;
13866;SDS011;7003;46.982;15.248;2024-03-08T00:52:37;7.80;;;6.70;;
13866;SDS011;7003;46.982;15.248;2024-03-08T00:55:04;7.03;;;5.63;;
13866;SDS011;7003;46.982;15.248;2024-03-08T00:57:33;9.10;;;7.20;;
13866;SDS011;7003;46.982;15.248;2024-03-08T01:00:02;9.60;;;5.53;;
13866;SDS011;7003;46.982;15.248;2024-03-08T01:02:32;8.37;;;5.97;;
13866;SDS011;7003;46.982;15.248;2024-03-08T01:05:03;7.77;;;4.97;;
13866;SDS011;7003;46.982;15.248;2024-03-08T01:07:32;4.07;;;3.30;;
13866;SDS011;7003;46.982;15.248;2024-03-08T01:09:59;6.73;;;4.33;;
13866;SDS011;7003;46.982;15.248;2024-03-08T01:12:45;9.37;;;4.97;;
13866;SDS011;7003;46.982;15.248;2024-03-08T01:15:12;6.83;;;4.63;;
13866;SDS011;7003;46.982;15.248;2024-03-08T01:17:43;8.70;;;4.90;;
13866;SDS011;7003;46.982;15.248;2024-03-08T01:20:13;6.50;;;5.17;;
13866;SDS011;7003;46.982;15.248;2024-03-08T01:22:43;7.80;;;5.23;;
13866;SDS011;7003;46.982;15.248;2024-03-08T01:25:11;5.40;;;4.70;;
13866;SDS011;7003;46.982;15.248;2024-03-08T01:27:38;5.50;;;3.73;;
13866;SDS011;7003;46.982;15.248;2024-03-08T01:30:08;6.50;;;5.00;;
13866;SDS011;7003;46.982;15.248;2024-03-08T01:32:38;6.67;;;5.00;;
13866;SDS011;7003;46.982;15.248;2024-03-08T01:35:07;10.60;;;5.37;;
13866;SDS011;7003;46.982;15.248;2024-03-08T01:37:38;5.37;;;4.87;;
13866;SDS011;7003;46.982;15.248;2024-03-08T01:40:06;4.83;;;3.83;;
13866;SDS011;7003;46.982;15.248;2024-03-08T01:42:34;6.00;;;3.33;;
13866;SDS011;7003;46.982;15.248;2024-03-08T01:45:03;6.83;;;3.50;;
13866;SDS011;7003;46.982;15.248;2024-03-08T01:47:31;8.07;;;4.93;;
13866;SDS011;7003;46.982;15.248;2024-03-08T01:50:01;4.53;;;4.17;;
13866;SDS011;7003;46.982;15.248;2024-03-08T01:52:40;11.27;;;3.97;;
13866;SDS011;7003;46.982;15.248;2024-03-08T01:55:11;6.10;;;4.57;;
13866;SDS011;7003;46.982;15.248;2024-03-08T01:57:39;10.00;;;6.17;;
13866;SDS011;7003;46.982;15.248;2024-03-08T02:00:10;9.93;;;4.73;;
13866;SDS011;7003;46.982;15.248;2024-03-08T02:02:40;4.00;;;3.60;;
13866;SDS011;7003;46.982;15.248;2024-03-08T02:05:10;7.07;;;5.47;;
13866;SDS011;7003;46.982;15.248;2024-03-08T02:07:43;7.83;;;6.03;;
13866;SDS011;7003;46.982;15.248;2024-03-08T02:10:11;4.73;;;4.10;;
13866;SDS011;7003;46.982;15.248;2024-03-08T02:12:41;7.43;;;4.70;;
13866;SDS011;7003;46.982;15.248;2024-03-08T02:15:11;5.50;;;4.93;;
13866;SDS011;7003;46.982;15.248;2024-03-08T02:17:40;6.80;;;5.40;;
13866;SDS011;7003;46.982;15.248;2024-03-08T02:20:11;5.80;;;5.20;;
13866;SDS011;7003;46.982;15.248;2024-03-08T02:22:42;8.97;;;6.07;;
13866;SDS011;7003;46.982;15.248;2024-03-08T02:25:12;9.50;;;3.73;;
13866;SDS011;7003;46.982;15.248;2024-03-08T02:27:42;4.30;;;3.77;;
13866;SDS011;7003;46.982;15.248;2024-03-08T02:30:10;4.23;;;3.83;;
13866;SDS011;7003;46.982;15.248;2024-03-08T02:32:39;3.77;;;3.47;;
13866;SDS011;7003;46.982;15.248;2024-03-08T02:35:06;5.57;;;3.77;;
13866;SDS011;7003;46.982;15.248;2024-03-08T02:37:35;4.23;;;3.77;;
13866;SDS011;7003;46.982;15.248;2024-03-08T02:40:13;5.03;;;4.50;;
13866;SDS011;7003;46.982;15.248;2024-03-08T02:42:40;6.67;;;5.70;;
13866;SDS011;7003;46.982;15.248;2024-03-08T02:45:08;5.27;;;3.40;;
13866;SDS011;7003;46.982;15.248;2024-03-08T02:47:38;9.40;;;5.27;;
13866;SDS011;7003;46.982;15.248;2024-03-08T02:50:08;7.87;;;4.07;;
13866;SDS011;7003;46.982;15.248;2024-03-08T02:52:37;5.70;;;5.13;;
13866;SDS011;7003;46.982;15.248;2024-03-08T02:55:07;7.07;;;4.53;;
13866;SDS011;7003;46.982;15.248;2024-03-08T02:57:38;8.37;;;5.47;;
13866;SDS011;7003;46.982;15.248;2024-03-08T03:00:08;4.37;;;3.83;;
13866;SDS011;7003;46.982;15.248;2024-03-08T03:02:38;7.30;;;4.90;;
13866;SDS011;7003;46.982;15.248;2024-03-08T03:05:05;8.50;;;5.10;;
13866;SDS011;7003;46.982;15.248;2024-03-08T03:07:35;3.70;;;3.37;;
13866;SDS011;7003;46.982;15.248;2024-03-08T03:10:03;6.90;;;4.40;;
13866;SDS011;7003;46.982;15.248;2024-03-08T03:12:31;18.83;;;5.03;;
13866;SDS011;7003;46.982;15.248;2024-03-08T03:15:01;6.43;;;4.83;;
13866;SDS011;7003;46.982;15.248;2024-03-08T03:17:30;11.17;;;5.67;;
13866;SDS011;7003;46.982;15.248;2024-03-08T03:19:58;7.30;;;4.83;;
13866;SDS011;7003;46.982;15.248;2024-03-08T03:22:28;5.27;;;3.87;;
13866;SDS011;7003;46.982;15.248;2024-03-08T03:24:56;5.87;;;4.17;;
13866;SDS011;7003;46.982;15.248;2024-03-08T03:27:26;6.63;;;5.30;;
13866;SDS011;7003;46.982;15.248;2024-03-08T03:30:00;6.97;;;5.87;;
13866;SDS011;7003;46.982;15.248;2024-03-08T03:32:55;3.87;;;3.47;;
13866;SDS011;7003;46.982;15.248;2024-03-08T03:35:26;5.57;;;4.83;;
13866;SDS011;7003;46.982;15.248;2024-03-08T03:37:54;7.40;;;5.50;;
13866;SDS011;7003;46.982;15.248;2024-03-08T03:40:32;5.23;;;3.13;;
13866;SDS011;7003;46.982;15.248;2024-03-08T03:43:06;6.53;;;5.00;;
13866;SDS011;7003;46.982;15.248;2024-03-08T03:45:40;5.57;;;4.57;;
13866;SDS011;7003;46.982;15.248;2024-03-08T03:48:11;6.67;;;5.73;;
13866;SDS011;7003;46.982;15.248;2024-03-08T03:50:41;6.00;;;4.90;;
13866;SDS011;7003;46.982;15.248;2024-03-08T03:53:09;7.93;;;4.27;;
13866;SDS011;7003;46.982;15.248;2024-03-08T03:55:38;7.87;;;5.83;;
13866;SDS011;7003;46.982;15.248;2024-03-08T03:58:05;7.17;;;4.50;;
13866;SDS011;7003;46.982;15.248;2024-03-08T04:00:40;6.40;;;4.63;;
13866;SDS011;7003;46.982;15.248;2024-03-08T04:03:11;5.37;;;4.87;;
13866;SDS011;7003;46.982;15.248;2024-03-08T04:05:39;10.77;;;5.47;;
13866;SDS011;7003;46.982;15.248;2024-03-08T04:08:13;9.70;;;4.23;;
13866;SDS011;7003;46.982;15.248;2024-03-08T04:10:42;5.67;;;3.87;;
13866;SDS011;7003;46.982;15.248;2024-03-08T04:13:11;7.93;;;5.00;;
13866;SDS011;7003;46.982;15.248;2024-03-08T04:15:38;10.20;;;5.03;;
13866;SDS011;7003;46.982;15.248;2024-03-08T04:18:08;10.47;;;5.33;;
13866;SDS011;7003;46.982;15.248;2024-03-08T04:20:35;5.60;;;4.13;;
13866;SDS011;7003;46.982;15.248;2024-03-08T04:23:05;7.23;;;4.93;;
13866;SDS011;7003;46.982;15.248;2024-03-08T04:25:38;9.77;;;6.13;;
13866;SDS011;7003;46.982;15.248;2024-03-08T04:28:11;5.67;;;4.47;;
13866;SDS011;7003;46.982;15.248;2024-03-08T04:30:39;5.57;;;5.07;;
13866;SDS011;7003;46.982;15.248;2024-03-08T04:33:11;7.63;;;4.80;;
13866;SDS011;7003;46.982;15.248;2024-03-08T04:35:43;7.90;;;4.77;;
13866;SDS011;7003;46.982;15.248;2024-03-08T04:38:13;4.70;;;3.43;;
13866;SDS011;7003;46.982;15.248;2024-03-08T04:40:41;7.47;;;4.53;;
13866;SDS011;7003;46.982;15.248;2024-03-08T04:43:23;7.53;;;3.30;;
13866;SDS011;7003;46.982;15.248;2024-03-08T04:45:52;6.50;;;4.53;;
13866;SDS011;7003;46.982;15.248;2024-03-08T04:48:24;7.87;;;4.83;;
13866;SDS011;7003;46.982;15.248;2024-03-08T04:50:54;5.70;;;3.50;;
13866;SDS011;7003;46.982;15.248;2024-03-08T04:53:22;5.37;;;3.87;;
13866;SDS011;7003;46.982;15.248;2024-03-08T04:55:50;6.87;;;4.63;;
13866;SDS011;7003;46.982;15.248;2024-03-08T04:58:20;5.77;;;3.67;;
13866;SDS011;7003;46.982;15.248;2024-03-08T05:00:50;5.03;;;3.90;;
13866;SDS011;7003;46.982;15.248;2024-03-08T05:03:20;5.90;;;4.67;;
13866;SDS011;7003;46.982;15.248;2024-03-08T05:05:54;2.90;;;2.60;;
13866;SDS011;7003;46.982;15.248;2024-03-08T05:08:29;4.93;;;4.37;;
13866;SDS011;7003;46.982;15.248;2024-03-08T05:10:57;6.60;;;4.23;;
13866;SDS011;7003;46.982;15.248;2024-03-08T05:13:43;4.03;;;3.10;;
13866;SDS011;7003;46.982;15.248;2024-03-08T05:16:14;3.13;;;2.87;;
13866;SDS011;7003;46.982;15.248;2024-03-08T05:18:47;3.90;;;3.10;;
13866;SDS011;7003;46.982;15.248;2024-03-08T05:21:24;9.13;;;4.53;;
13866;SDS011;7003;46.982;15.248;2024-03-08T05:23:55;6.33;;;2.87;;
13866;SDS011;7003;46.982;15.248;2024-03-08T05:26:31;9.00;;;5.07;;
13866;SDS011;7003;46.982;15.248;2024-03-08T05:29:04;3.40;;;3.10;;
13866;SDS011;7003;46.982;15.248;2024-03-08T05:31:42;8.80;;;3.93;;
13866;SDS011;7003;46.982;15.248;2024-03-08T05:34:16;3.93;;;2.27;;
13866;SDS011;7003;46.982;15.248;2024-03-08T05:37:00;4.93;;;3.67;;
13866;SDS011;7003;46.982;15.248;2024-03-08T05:39:34;3.77;;;3.40;;
13866;SDS011;7003;46.982;15.248;2024-03-08T05:42:11;5.43;;;3.20;;
13866;SDS011;7003;46.982;15.248;2024-03-08T05:44:44;6.47;;;4.10;;
13866;SDS011;7003;46.982;15.248;2024-03-08T05:47:16;4.67;;;3.13;;
13866;SDS011;7003;46.982;15.248;2024-03-08T05:49:49;4.30;;;3.80;;
13866;SDS011;7003;46.982;15.248;2024-03-08T05:52:31;5.67;;;4.40;;
13866;SDS011;7003;46.982;15.248;2024-03-08T05:55:02;7.40;;;5.47;;
13866;SDS011;7003;46.982;15.248;2024-03-08T05:57:35;4.20;;;3.20;;
13866;SDS011;7003;46.982;15.248;2024-03-08T06:00:10;7.27;;;4.20;;
13866;SDS011;7003;46.982;15.248;2024-03-08T06:02:42;8.87;;;5.87;;
13866;SDS011;7003;46.982;15.248;2024-03-08T06:05:14;3.83;;;2.73;;
13866;SDS011;7003;46.982;15.248;2024-03-08T06:07:49;5.57;;;4.37;;
13866;SDS011;7003;46.982;15.248;2024-03-08T06:10:23;5.00;;;3.53;;
13866;SDS011;7003;46.982;15.248;2024-03-08T06:12:55;6.80;;;3.50;;
13866;SDS011;7003;46.982;15.248;2024-03-08T06:15:32;5.33;;;3.53;;
13866;SDS011;7003;46.982;15.248;2024-03-08T06:18:05;4.90;;;4.03;;
13866;SDS011;7003;46.982;15.248;2024-03-08T06:20:38;4.10;;;2.40;;
13866;SDS011;7003;46.982;15.248;2024-03-08T06:23:10;4.87;;;3.53;;
13866;SDS011;7003;46.982;15.248;2024-03-08T06:25:39;9.17;;;5.87;;
13866;SDS011;7003;46.982;15.248;2024-03-08T06:28:08;6.37;;;5.00;;
13866;SDS011;7003;46.982;15.248;2024-03-08T06:30:40;5.00;;;3.60;;
13866;SDS011;7003;46.982;15.248;2024-03-08T06:33:09;3.73;;;2.63;;
13866;SDS011;7003;46.982;15.248;2024-03-08T06:35:37;5.23;;;3.80;;
13866;SDS011;7003;46.982;15.248;2024-03-08T06:38:06;7.73;;;3.67;;
13866;SDS011;7003;46.982;15.248;2024-03-08T06:40:41;5.07;;;3.93;;
13866;SDS011;7003;46.982;15.248;2024-03-08T06:43:10;5.70;;;4.43;;
13866;SDS011;7003;46.982;15.248;2024-03-08T06:45:41;6.70;;;4.33;;
13866;SDS011;7003;46.982;15.248;2024-03-08T06:48:14;3.43;;;3.17;;
13866;SDS011;7003;46.982;15.248;2024-03-08T06:50:46;6.17;;;5.17;;
13866;SDS011;7003;46.982;15.248;2024-03-08T06:53:15;4.77;;;4.33;;
13866;SDS011;7003;46.982;15.248;2024-03-08T06:55:47;5.50;;;5.00;;
13866;SDS011;7003;46.982;15.248;2024-03-08T06:58:17;4.80;;;4.03;;
13866;SDS011;7003;46.982;15.248;2024-03-08T07:00:45;5.70;;;5.07;;
13866;SDS011;7003;46.982;15.248;2024-03-08T07:03:20;7.73;;;4.47;;
13866;SDS011;7003;46.982;15.248;2024-03-08T07:05:49;4.97;;;3.37;;
13866;SDS011;7003;46.982;15.248;2024-03-08T07:08:19;5.50;;;4.23;;
13866;SDS011;7003;46.982;15.248;2024-03-08T07:10:50;8.27;;;4.23;;
13866;SDS011;7003;46.982;15.248;2024-03-08T07:13:21;4.70;;;4.17;;
13866;SDS011;7003;46.982;15.248;2024-03-08T07:15:49;4.60;;;4.13;;
13866;SDS011;7003;46.982;15.248;2024-03-08T07:18:18;8.73;;;4.87;;
13866;SDS011;7003;46.982;15.248;2024-03-08T07:20:47;5.27;;;4.13;;
13866;SDS011;7003;46.982;15.248;2024-03-08T07:23:16;5.67;;;4.27;;
13866;SDS011;7003;46.982;15.248;2024-03-08T07:26:17;5.00;;;4.13;;
13866;SDS011;7003;46.982;15.248;2024-03-08T07:28:46;6.77;;;5.17;;
13866;SDS011;7003;46.982;15.248;2024-03-08T07:31:17;8.03;;;4.53;;
13866;SDS011;7003;46.982;15.248;2024-03-08T07:33:57;7.53;;;4.90;;
13866;SDS011;7003;46.982;15.248;2024-03-08T07:36:25;6.50;;;5.03;;
13866;SDS011;7003;46.982;15.248;2024-03-08T07:38:53;9.87;;;4.97;;
13866;SDS011;7003;46.982;15.248;2024-03-08T07:41:25;4.47;;;3.87;;
13866;SDS011;7003;46.982;15.248;2024-03-08T07:43:56;10.93;;;5.27;;
13866;SDS011;7003;46.982;15.248;2024-03-08T07:46:24;8.00;;;5.00;;
13866;SDS011;7003;46.982;15.248;2024-03-08T07:48:53;7.50;;;4.87;;
13866;SDS011;7003;46.982;15.248;2024-03-08T07:51:21;7.13;;;4.70;;
13866;SDS011;7003;46.982;15.248;2024-03-08T07:53:49;4.10;;;3.33;;
13866;SDS011;7003;46.982;15.248;2024-03-08T07:56:17;4.87;;;4.10;;
13866;SDS011;7003;46.982;15.248;2024-03-08T07:58:46;6.07;;;4.27;;
13866;SDS011;7003;46.982;15.248;2024-03-08T08:01:17;5.43;;;4.93;;
13866;SDS011;7003;46.982;15.248;2024-03-08T08:03:45;5.17;;;4.60;;
13866;SDS011;7003;46.982;15.248;2024-03-08T08:06:16;9.77;;;6.67;;
13866;SDS011;7003;46.982;15.248;2024-03-08T08:08:46;8.07;;;4.87;;
13866;SDS011;7003;46.982;15.248;2024-03-08T08:11:18;6.70;;;5.07;;
13866;SDS011;7003;46.982;15.248;2024-03-08T08:13:47;4.90;;;3.63;;
13866;SDS011;7003;46.982;15.248;2024-03-08T08:16:15;5.50;;;3.60;;
13866;SDS011;7003;46.982;15.248;2024-03-08T08:18:44;4.87;;;4.37;;
13866;SDS011;7003;46.982;15.248;2024-03-08T08:21:13;4.87;;;3.53;;
13866;SDS011;7003;46.982;15.248;2024-03-08T08:23:41;7.20;;;4.33;;
13866;SDS011;7003;46.982;15.248;2024-03-08T08:26:12;4.10;;;3.33;;
13866;SDS011;7003;46.982;15.248;2024-03-08T08:28:42;4.63;;;4.23;;
13866;SDS011;7003;46.982;15.248;2024-03-08T08:31:13;7.90;;;4.67;;
13866;SDS011;7003;46.982;15.248;2024-03-08T08:33:41;5.60;;;3.60;;
13866;SDS011;7003;46.982;15.248;2024-03-08T08:36:09;8.20;;;4.73;;
13866;SDS011;7003;46.982;15.248;2024-03-08T08:38:38;6.63;;;5.60;;
13866;SDS011;7003;46.982;15.248;2024-03-08T08:41:09;7.60;;;5.40;;
13866;SDS011;7003;46.982;15.248;2024-03-08T08:43:40;6.57;;;4.77;;
13866;SDS011;7003;46.982;15.248;2024-03-08T08:46:09;6.27;;;4.80;;
13866;SDS011;7003;46.982;15.248;2024-03-08T08:48:40;5.57;;;4.27;;
13866;SDS011;7003;46.982;15.248;2024-03-08T08:51:09;6.87;;;4.97;;
13866;SDS011;7003;46.982;15.248;2024-03-08T08:53:38;6.60;;;5.57;;
13866;SDS011;7003;46.982;15.248;2024-03-08T08:56:08;5.30;;;3.80;;
13866;SDS011;7003;46.982;15.248;2024-03-08T08:58:39;6.03;;;4.60;;
13866;SDS011;7003;46.982;15.248;2024-03-08T09:01:08;10.77;;;5.03;;
13866;SDS011;7003;46.982;15.248;2024-03-08T09:03:37;7.70;;;5.30;;
13866;SDS011;7003;46.982;15.248;2024-03-08T09:06:10;7.53;;;5.10;;
13866;SDS011;7003;46.982;15.248;2024-03-08T09:08:39;8.10;;;6.27;;
13866;SDS011;7003;46.982;15.248;2024-03-08T09:11:07;7.77;;;5.77;;
13866;SDS011;7003;46.982;15.248;2024-03-08T09:13:39;11.53;;;7.33;;
13866;SDS011;7003;46.982;15.248;2024-03-08T09:16:07;7.37;;;6.23;;
13866;SDS011;7003;46.982;15.248;2024-03-08T09:18:36;9.90;;;6.27;;
13866;SDS011;7003;46.982;15.248;2024-03-08T09:21:04;10.43;;;6.93;;
13866;SDS011;7003;46.982;15.248;2024-03-08T09:23:39;8.47;;;5.90;;
13866;SDS011;7003;46.982;15.248;2024-03-08T09:26:09;9.40;;;6.60;;
13866;SDS011;7003;46.982;15.248;2024-03-08T09:28:39;8.07;;;5.73;;
13866;SDS011;7003;46.982;15.248;2024-03-08T09:31:09;12.67;;;7.73;;
13866;SDS011;7003;46.982;15.248;2024-03-08T09:33:37;8.67;;;6.60;;
13866;SDS011;7003;46.982;15.248;2024-03-08T09:36:06;10.00;;;6.00;;
13866;SDS011;7003;46.982;15.248;2024-03-08T09:38:36;9.60;;;6.93;;
13866;SDS011;7003;46.982;15.248;2024-03-08T09:41:08;8.70;;;6.43;;
13866;SDS011;7003;46.982;15.248;2024-03-08T09:43:37;10.15;;;5.82;;
13866;SDS011;7003;46.982;15.248;2024-03-08T09:46:08;8.83;;;6.27;;
13866;SDS011;7003;46.982;15.248;2024-03-08T09:48:37;9.73;;;5.13;;
13866;SDS011;7003;46.982;15.248;2024-03-08T09:51:07;10.23;;;6.93;;
13866;SDS011;7003;46.982;15.248;2024-03-08T09:53:41;6.73;;;5.60;;
13866;SDS011;7003;46.982;15.248;2024-03-08T09:56:09;5.93;;;4.57;;
13866;SDS011;7003;46.982;15.248;2024-03-08T09:58:39;8.50;;;6.33;;
13866;SDS011;7003;46.982;15.248;2024-03-08T10:01:32;9.77;;;5.80;;
13866;SDS011;7003;46.982;15.248;2024-03-08T10:04:02;8.07;;;6.35;;
13866;SDS011;7003;46.982;15.248;2024-03-08T10:06:32;9.10;;;6.67;;
13866;SDS011;7003;46.982;15.248;2024-03-08T10:09:05;8.27;;;6.30;;
13866;SDS011;7003;46.982;15.248;2024-03-08T10:11:34;8.50;;;6.23;;
13866;SDS011;7003;46.982;15.248;2024-03-08T10:14:05;8.87;;;5.87;;
13866;SDS011;7003;46.982;15.248;2024-03-08T10:16:38;9.20;;;6.93;;
13866;SDS011;7003;46.982;15.248;2024-03-08T10:19:07;9.80;;;7.10;;
13866;SDS011;7003;46.982;15.248;2024-03-08T10:21:47;5.47;;;4.77;;
13866;SDS011;7003;46.982;15.248;2024-03-08T10:24:19;9.13;;;5.13;;
13866;SDS011;7003;46.982;15.248;2024-03-08T10:26:52;6.70;;;5.03;;
13866;SDS011;7003;46.982;15.248;2024-03-08T10:29:24;10.40;;;7.00;;
13866;SDS011;7003;46.982;15.248;2024-03-08T10:31:52;5.87;;;4.97;;
13866;SDS011;7003;46.982;15.248;2024-03-08T10:34:24;8.07;;;5.43;;
13866;SDS011;7003;46.982;15.248;2024-03-08T10:36:54;7.78;;;5.35;;
13866;SDS011;7003;46.982;15.248;2024-03-08T10:39:34;6.97;;;4.50;;
13866;SDS011;7003;46.982;15.248;2024-03-08T10:42:03;9.73;;;5.88;;
13866;SDS011;7003;46.982;15.248;2024-03-08T10:44:36;8.80;;;6.00;;
13866;SDS011;7003;46.982;15.248;2024-03-08T10:47:15;9.30;;;4.90;;
13866;SDS011;7003;46.982;15.248;2024-03-08T10:49:51;8.75;;;6.70;;
13866;SDS011;7003;46.982;15.248;2024-03-08T10:52:29;8.07;;;6.15;;
13866;SDS011;7003;46.982;15.248;2024-03-08T10:55:00;7.88;;;5.90;;
13866;SDS011;7003;46.982;15.248;2024-03-08T10:57:38;7.65;;;5.18;;
13866;SDS011;7003;46.982;15.248;2024-03-08T11:00:11;9.43;;;6.35;;
13866;SDS011;7003;46.982;15.248;2024-03-08T11:02:43;6.05;;;5.07;;
13866;SDS011;7003;46.982;15.248;2024-03-08T11:05:32;8.95;;;5.90;;
13866;SDS011;7003;46.982;15.248;2024-03-08T11:08:05;9.95;;;6.55;;
13866;SDS011;7003;46.982;15.248;2024-03-08T11:10:49;7.93;;;6.18;;
13866;SDS011;7003;46.982;15.248;2024-03-08T11:13:32;9.77;;;6.22;;
13866;SDS011;7003;46.982;15.248;2024-03-08T11:16:07;9.13;;;6.95;;
13866;SDS011;7003;46.982;15.248;2024-03-08T11:18:37;9.95;;;6.97;;
13866;SDS011;7003;46.982;15.248;2024-03-08T11:21:08;6.85;;;5.57;;
13866;SDS011;7003;46.982;15.248;2024-03-08T11:23:38;6.30;;;5.30;;
13866;SDS011;7003;46.982;15.248;2024-03-08T11:26:18;6.25;;;5.07;;
13866;SDS011;7003;46.982;15.248;2024-03-08T11:28:50;8.50;;;5.75;;
13866;SDS011;7003;46.982;15.248;2024-03-08T11:31:23;8.73;;;6.15;;
13866;SDS011;7003;46.982;15.248;2024-03-08T11:33:54;9.18;;;6.28;;
13866;SDS011;7003;46.982;15.248;2024-03-08T11:36:23;8.02;;;4.63;;
13866;SDS011;7003;46.982;15.248;2024-03-08T11:38:54;8.00;;;4.93;;
13866;SDS011;7003;46.982;15.248;2024-03-08T11:41:33;7.47;;;4.30;;
13866;SDS011;7003;46.982;15.248;2024-03-08T11:44:04;7.22;;;4.95;;
13866;SDS011;7003;46.982;15.248;2024-03-08T11:46:37;6.90;;;3.35;;
13866;SDS011;7003;46.982;15.248;2024-03-08T11:49:10;6.07;;;4.88;;
13866;SDS011;7003;46.982;15.248;2024-03-08T11:51:40;7.07;;;5.57;;
13866;SDS011;7003;46.982;15.248;2024-03-08T11:54:12;6.20;;;4.45;;
13866;SDS011;7003;46.982;15.248;2024-03-08T11:56:45;4.65;;;4.15;;
13866;SDS011;7003;46.982;15.248;2024-03-08T11:59:16;7.78;;;5.25;;
13866;SDS011;7003;46.982;15.248;2024-03-08T12:01:56;5.18;;;4.32;;
13866;SDS011;7003;46.982;15.248;2024-03-08T12:04:27;4.80;;;4.30;;
13866;SDS011;7003;46.982;15.248;2024-03-08T12:06:58;7.22;;;5.00;;
13866;SDS011;7003;46.982;15.248;2024-03-08T12:09:27;7.10;;;5.82;;
13866;SDS011;7003;46.982;15.248;2024-03-08T12:11:57;9.50;;;6.82;;
13866;SDS011;7003;46.982;15.248;2024-03-08T12:14:27;8.90;;;6.68;;
13866;SDS011;7003;46.982;15.248;2024-03-08T12:16:58;9.05;;;7.07;;
13866;SDS011;7003;46.982;15.248;2024-03-08T12:19:28;6.40;;;4.78;;
13866;SDS011;7003;46.982;15.248;2024-03-08T12:21:56;9.82;;;5.80;;
13866;SDS011;7003;46.982;15.248;2024-03-08T12:24:25;7.18;;;5.43;;
13866;SDS011;7003;46.982;15.248;2024-03-08T12:26:55;8.38;;;5.47;;
13866;SDS011;7003;46.982;15.248;2024-03-08T12:29:27;6.70;;;5.15;;
13866;SDS011;7003;46.982;15.248;2024-03-08T12:31:58;11.00;;;6.18;;
13866;SDS011;7003;46.982;15.248;2024-03-08T12:34:27;9.60;;;6.20;;
13866;SDS011;7003;46.982;15.248;2024-03-08T12:36:58;11.13;;;6.50;;
13866;SDS011;7003;46.982;15.248;2024-03-08T12:39:26;8.75;;;4.80;;
13866;SDS011;7003;46.982;15.248;2024-03-08T12:41:55;7.45;;;5.53;;
13866;SDS011;7003;46.982;15.248;2024-03-08T12:44:25;12.73;;;6.25;;
13866;SDS011;7003;46.982;15.248;2024-03-08T12:46:57;9.23;;;6.18;;
13866;SDS011;7003;46.982;15.248;2024-03-08T12:49:26;8.82;;;5.68;;
13866;SDS011;7003;46.982;15.248;2024-03-08T12:51:56;8.17;;;5.50;;
13866;SDS011;7003;46.982;15.248;2024-03-08T12:54:33;8.80;;;5.57;;
13866;SDS011;7003;46.982;15.248;2024-03-08T12:57:02;6.63;;;5.77;;
13866;SDS011;7003;46.982;15.248;2024-03-08T12:59:34;9.13;;;6.28;;
13866;SDS011;7003;46.982;15.248;2024-03-08T13:02:08;8.93;;;5.60;;
13866;SDS011;7003;46.982;15.248;2024-03-08T13:04:42;16.60;;;7.25;;
13866;SDS011;7003;46.982;15.248;2024-03-08T13:07:10;11.32;;;7.68;;
13866;SDS011;7003;46.982;15.248;2024-03-08T13:09:42;9.57;;;7.53;;
13866;SDS011;7003;46.982;15.248;2024-03-08T13:12:11;11.00;;;7.43;;
13866;SDS011;7003;46.982;15.248;2024-03-08T13:14:40;9.18;;;5.60;;
13866;SDS011;7003;46.982;15.248;2024-03-08T13:17:10;6.38;;;5.72;;
13866;SDS011;7003;46.982;15.248;2024-03-08T13:19:38;10.50;;;6.75;;
13866;SDS011;7003;46.982;15.248;2024-03-08T13:22:08;10.80;;;8.10;;
13866;SDS011;7003;46.982;15.248;2024-03-08T13:24:38;13.17;;;7.83;;
13866;SDS011;7003;46.982;15.248;2024-03-08T13:27:08;8.90;;;5.93;;
13866;SDS011;7003;46.982;15.248;2024-03-08T13:29:45;8.85;;;6.55;;
13866;SDS011;7003;46.982;15.248;2024-03-08T13:32:19;9.25;;;6.63;;
13866;SDS011;7003;46.982;15.248;2024-03-08T13:34:50;12.00;;;7.33;;
13866;SDS011;7003;46.982;15.248;2024-03-08T13:37:18;13.27;;;6.77;;
13866;SDS011;7003;46.982;15.248;2024-03-08T13:39:50;7.43;;;6.30;;
13866;SDS011;7003;46.982;15.248;2024-03-08T13:42:19;10.07;;;5.63;;
13866;SDS011;7003;46.982;15.248;2024-03-08T13:44:48;8.88;;;7.05;;
13866;SDS011;7003;46.982;15.248;2024-03-08T13:47:20;8.30;;;5.53;;
13866;SDS011;7003;46.982;15.248;2024-03-08T13:49:50;15.80;;;7.30;;
13866;SDS011;7003;46.982;15.248;2024-03-08T13:52:18;9.57;;;6.00;;
13866;SDS011;7003;46.982;15.248;2024-03-08T13:54:49;15.23;;;7.15;;
13866;SDS011;7003;46.982;15.248;2024-03-08T13:57:17;9.40;;;7.70;;
13866;SDS011;7003;46.982;15.248;2024-03-08T13:59:48;10.13;;;6.77;;
13866;SDS011;7003;46.982;15.248;2024-03-08T14:02:17;8.60;;;6.33;;
13866;SDS011;7003;46.982;15.248;2024-03-08T14:04:46;9.73;;;7.10;;
13866;SDS011;7003;46.982;15.248;2024-03-08T14:07:17;8.77;;;6.53;;
13866;SDS011;7003;46.982;15.248;2024-03-08T14:09:45;8.97;;;7.03;;
13866;SDS011;7003;46.982;15.248;2024-03-08T14:12:23;12.60;;;6.27;;
13866;SDS011;7003;46.982;15.248;2024-03-08T14:14:54;9.13;;;7.10;;
13866;SDS011;7003;46.982;15.248;2024-03-08T14:17:28;12.20;;;7.47;;
13866;SDS011;7003;46.982;15.248;2024-03-08T14:19:59;11.17;;;7.87;;
13866;SDS011;7003;46.982;15.248;2024-03-08T14:22:30;8.97;;;6.27;;
13866;SDS011;7003;46.982;15.248;2024-03-08T14:25:01;9.47;;;7.13;;
13866;SDS011;7003;46.982;15.248;2024-03-08T14:27:33;11.23;;;7.27;;
13866;SDS011;7003;46.982;15.248;2024-03-08T14:30:05;11.03;;;6.53;;
13866;SDS011;7003;46.982;15.248;2024-03-08T14:32:37;11.53;;;7.37;;
13866;SDS011;7003;46.982;15.248;2024-03-08T14:35:07;10.93;;;7.90;;
13866;SDS011;7003;46.982;15.248;2024-03-08T14:37:38;8.37;;;6.20;;
13866;SDS011;7003;46.982;15.248;2024-03-08T14:40:08;10.20;;;6.77;;
13866;SDS011;7003;46.982;15.248;2024-03-08T14:42:37;11.67;;;7.77;;
13866;SDS011;7003;46.982;15.248;2024-03-08T14:45:05;13.37;;;7.77;;
13866;SDS011;7003;46.982;15.248;2024-03-08T14:47:35;12.87;;;5.93;;
13866;SDS011;7003;46.982;15.248;2024-03-08T14:50:08;12.00;;;7.70;;
13866;SDS011;7003;46.982;15.248;2024-03-08T14:52:39;10.27;;;6.53;;
13866;SDS011;7003;46.982;15.248;2024-03-08T14:55:08;11.33;;;8.03;;
13866;SDS011;7003;46.982;15.248;2024-03-08T14:57:40;11.93;;;7.53;;
13866;SDS011;7003;46.982;15.248;2024-03-08T15:00:11;9.27;;;6.57;;
13866;SDS011;7003;46.982;15.248;2024-03-08T15:02:44;10.67;;;7.33;;
13866;SDS011;7003;46.982;15.248;2024-03-08T15:05:15;13.13;;;8.40;;
13866;SDS011;7003;46.982;15.248;2024-03-08T15:07:49;12.10;;;8.07;;